createdAt,value
2018-10-05T00:01:02.040Z,71.07
2018-10-05T00:03:31.447Z,71.48
2018-10-05T00:05:59.800Z,71.03
2018-10-05T00:08:28.843Z,70.81
2018-10-05T00:10:57.191Z,70.88
2018-10-05T00:13:25.584Z,71.85
2018-10-05T00:15:54.379Z,72.04
2018-10-05T00:18:22.720Z,69.68
2018-10-05T00:23:18.871Z,68.55
2018-10-05T00:25:47.232Z,68.54
2018-10-05T00:28:15.787Z,69.80
2018-10-05T00:30:44.547Z,71.32
2018-10-05T00:33:12.939Z,70.85
2018-10-05T00:35:41.406Z,68.30
2018-10-05T00:38:10.150Z,69.97
2018-10-05T00:40:38.481Z,72.47
2018-10-05T00:43:06.845Z,70.77
2018-10-05T00:45:35.249Z,71.62
2018-10-05T00:48:03.697Z,71.48
2018-10-05T00:50:32.125Z,70.68
2018-10-05T00:53:00.949Z,70.82
2018-10-05T00:55:29.401Z,70.47
2018-10-05T00:57:57.775Z,71.34
2018-10-05T01:00:26.625Z,70.72
2018-10-05T01:02:55.111Z,70.71
2018-10-05T01:05:23.575Z,71.29
2018-10-05T01:07:52.372Z,69.94
2018-10-05T01:10:20.779Z,69.03
2018-10-05T01:12:49.145Z,70.12
2018-10-05T01:15:18.016Z,68.39
2018-10-05T01:17:46.436Z,70.06
2018-10-05T01:20:14.831Z,69.45
2018-10-05T01:22:43.663Z,70.03
2018-10-05T01:25:12.115Z,69.57
2018-10-05T01:27:40.520Z,70.63
2018-10-05T01:30:13.303Z,70.11
2018-10-05T01:32:43.603Z,70.84
2018-10-05T01:35:12.488Z,69.28
2018-10-05T01:37:41.626Z,67.05
2018-10-05T01:40:10.572Z,68.72
2018-10-05T01:42:38.932Z,69.11
2018-10-05T01:45:07.667Z,68.87
2018-10-05T01:47:36.011Z,69.02
2018-10-05T01:50:04.387Z,69.54
2018-10-05T01:52:33.111Z,68.48
2018-10-05T01:55:01.479Z,68.57
2018-10-05T01:57:29.868Z,69.93
2018-10-05T01:59:58.655Z,68.17
2018-10-05T02:02:27.091Z,69.74
2018-10-05T02:04:55.431Z,68.81
2018-10-05T02:07:24.307Z,69.15
2018-10-05T02:09:53.082Z,70.57
2018-10-05T02:12:21.502Z,68.36
2018-10-05T02:14:50.260Z,69.05
2018-10-05T02:17:18.743Z,70.10
2018-10-05T02:19:47.135Z,69.54
2018-10-05T02:22:16.008Z,69.50
2018-10-05T02:24:44.492Z,65.58
2018-10-05T02:27:12.953Z,68.76
2018-10-05T02:29:41.864Z,69.83
2018-10-05T02:32:10.239Z,70.16
2018-10-05T02:34:38.651Z,68.81
2018-10-05T02:37:07.404Z,69.09
2018-10-05T02:39:35.895Z,70.91
2018-10-05T02:42:04.299Z,70.96
2018-10-05T02:44:33.264Z,70.01
2018-10-05T02:47:01.719Z,66.80
2018-10-05T02:49:30.114Z,67.75
2018-10-05T02:51:58.804Z,69.77
2018-10-05T02:54:28.204Z,68.99
2018-10-05T02:56:56.739Z,67.87
2018-10-05T02:59:25.488Z,67.79
2018-10-05T03:02:05.407Z,68.29
2018-10-05T03:04:34.315Z,69.69
2018-10-05T03:07:02.653Z,69.53
2018-10-05T03:09:31.034Z,68.58
2018-10-05T03:11:59.859Z,67.93
2018-10-05T03:14:28.211Z,69.51
2018-10-05T03:16:57.400Z,70.20
2018-10-05T03:19:26.094Z,68.95
2018-10-05T03:21:54.588Z,68.79
2018-10-05T03:24:23.104Z,69.16
2018-10-05T03:26:51.979Z,69.88
2018-10-05T03:29:20.391Z,69.56
2018-10-05T03:31:48.823Z,70.35
2018-10-05T03:34:17.627Z,70.06
2018-10-05T03:36:45.999Z,70.05
2018-10-05T03:39:15.176Z,69.54
2018-10-05T03:41:44.308Z,70.70
2018-10-05T03:44:13.335Z,69.79
2018-10-05T03:46:42.375Z,70.88
2018-10-05T03:49:11.695Z,70.17
2018-10-05T03:51:40.775Z,70.69
2018-10-05T03:54:09.864Z,70.18
2018-10-05T03:56:39.320Z,71.54
2018-10-05T03:59:08.360Z,70.92
2018-10-05T04:01:37.455Z,68.43
2018-10-05T04:04:07.487Z,68.95
2018-10-05T04:06:36.612Z,68.82
2018-10-05T04:09:08.261Z,67.99
2018-10-05T04:11:37.367Z,67.88
2018-10-05T04:14:06.552Z,68.65
2018-10-05T04:16:36.056Z,69.12
2018-10-05T04:19:05.829Z,69.48
2018-10-05T04:21:34.859Z,69.04
2018-10-05T04:24:04.243Z,69.09
2018-10-05T04:26:33.331Z,69.86
2018-10-05T04:29:02.417Z,70.95
2018-10-05T04:31:31.768Z,70.23
2018-10-05T04:34:00.808Z,70.76
2018-10-05T04:36:29.820Z,70.23
2018-10-05T04:38:58.918Z,66.83
2018-10-05T04:41:28.101Z,69.33
2018-10-05T04:43:57.164Z,70.02
2018-10-05T04:46:26.299Z,71.12
2018-10-05T04:48:55.476Z,71.78
2018-10-05T04:51:24.759Z,71.57
2018-10-05T04:53:54.399Z,71.38
2018-10-05T04:56:23.823Z,70.67
2018-10-05T04:58:53.213Z,71.86
2018-10-05T05:01:22.280Z,71.61
2018-10-05T05:03:51.379Z,72.79
2018-10-05T05:06:20.387Z,72.12
2018-10-05T05:08:50.304Z,72.71
2018-10-05T05:11:19.538Z,70.27
2018-10-05T05:13:48.772Z,71.23
2018-10-05T05:16:19.432Z,70.34
2018-10-05T05:18:48.457Z,71.13
2018-10-05T05:21:17.499Z,70.77
2018-10-05T05:23:46.543Z,71.31
2018-10-05T05:26:15.737Z,70.19
2018-10-05T05:28:45.199Z,71.36
2018-10-05T05:31:14.880Z,70.98
2018-10-05T05:33:44.095Z,71.94
2018-10-05T05:36:13.108Z,71.08
2018-10-05T05:38:42.306Z,71.73
2018-10-05T05:41:11.415Z,71.09
2018-10-05T05:43:40.449Z,71.98
2018-10-05T05:46:09.841Z,70.79
2018-10-05T05:48:39.072Z,71.78
2018-10-05T05:51:08.104Z,70.29
2018-10-05T05:53:37.509Z,69.83
2018-10-05T05:56:06.576Z,69.67
2018-10-05T05:58:35.716Z,71.34
2018-10-05T06:01:07.986Z,70.65
2018-10-05T06:03:38.343Z,70.31
2018-10-05T06:06:08.405Z,69.67
2018-10-05T06:08:37.424Z,68.45
2018-10-05T06:11:06.787Z,69.22
2018-10-05T06:13:36.296Z,68.65
2018-10-05T06:16:05.402Z,69.39
2018-10-05T06:18:34.363Z,68.32
2018-10-05T06:21:03.839Z,68.89
2018-10-05T06:23:33.792Z,68.38
2018-10-05T06:26:02.835Z,68.81
2018-10-05T06:28:31.906Z,67.31
2018-10-05T06:31:01.110Z,67.62
2018-10-05T06:33:30.332Z,67.50
2018-10-05T06:35:59.373Z,67.79
2018-10-05T06:38:28.475Z,66.69
2018-10-05T06:40:57.844Z,67.63
2018-10-05T06:43:27.916Z,66.12
2018-10-05T06:45:57.176Z,65.72
2018-10-05T06:48:26.187Z,67.06
2018-10-05T06:50:55.237Z,67.22
2018-10-05T06:53:24.416Z,64.93
2018-10-05T06:55:53.468Z,64.91
2018-10-05T06:58:22.975Z,66.18
2018-10-05T07:00:52.059Z,67.34
2018-10-05T07:03:21.149Z,65.96
2018-10-05T07:05:50.806Z,64.87
2018-10-05T07:08:19.859Z,65.09
2018-10-05T07:10:48.975Z,65.91
2018-10-05T07:13:18.808Z,67.24
2018-10-05T07:15:47.878Z,67.31
2018-10-05T07:18:17.515Z,63.63
2018-10-05T07:20:46.907Z,66.06
2018-10-05T07:23:15.964Z,65.13
2018-10-05T07:25:45.012Z,65.95
2018-10-05T07:28:14.403Z,63.16
2018-10-05T07:30:43.463Z,64.13
2018-10-05T07:33:12.647Z,64.17
2018-10-05T07:35:42.067Z,64.05
2018-10-05T07:38:11.394Z,64.56
2018-10-05T07:40:40.446Z,64.06
2018-10-05T07:43:09.824Z,66.14
2018-10-05T07:45:39.004Z,65.91
2018-10-05T07:48:08.043Z,66.75
2018-10-05T07:50:37.352Z,65.04
2018-10-05T07:53:06.852Z,66.19
2018-10-05T07:55:35.955Z,66.02
2018-10-05T07:58:05.356Z,65.12
2018-10-05T08:00:34.435Z,63.97
2018-10-05T08:03:03.527Z,64.93
2018-10-05T08:05:33.577Z,66.18
2018-10-05T08:08:02.596Z,64.42
2018-10-05T08:10:31.682Z,64.54
2018-10-05T08:13:00.844Z,64.69
2018-10-05T08:15:30.016Z,63.41
2018-10-05T08:17:59.032Z,62.26
2018-10-05T08:20:29.363Z,63.86
2018-10-05T08:22:58.451Z,61.16
2018-10-05T08:25:27.555Z,62.40
2018-10-05T08:27:56.676Z,59.05
2018-10-05T08:30:25.877Z,60.52
2018-10-05T08:32:55.340Z,62.21
2018-10-05T08:35:24.855Z,60.06
2018-10-05T08:37:53.872Z,59.87
2018-10-05T08:40:22.976Z,60.46
2018-10-05T08:42:52.357Z,61.87
2018-10-05T08:45:21.380Z,61.61
2018-10-05T08:47:50.369Z,59.54
2018-10-05T08:50:19.843Z,60.06
2018-10-05T08:52:49.316Z,59.19
2018-10-05T08:55:18.384Z,56.86
2018-10-05T08:57:47.458Z,57.45
2018-10-05T09:00:16.921Z,57.42
2018-10-05T09:02:46.120Z,57.33
2018-10-05T09:05:15.207Z,56.53
2018-10-05T09:07:44.459Z,55.31
2018-10-05T09:10:13.503Z,54.21
2018-10-05T09:12:42.835Z,54.25
2018-10-05T09:15:11.867Z,52.60
2018-10-05T09:17:41.079Z,53.78
2018-10-05T09:20:10.616Z,53.56
2018-10-05T09:22:39.697Z,53.86
2018-10-05T09:25:08.804Z,53.43
2018-10-05T09:27:38.267Z,54.35
2018-10-05T09:30:07.276Z,52.83
2018-10-05T09:32:36.406Z,53.88
2018-10-05T09:35:06.215Z,52.47
2018-10-05T09:37:35.310Z,52.29
2018-10-05T09:40:04.399Z,53.24
2018-10-05T09:42:33.908Z,53.68
2018-10-05T09:45:02.988Z,52.22
2018-10-05T09:47:32.043Z,52.26
2018-10-05T09:50:01.409Z,51.91
2018-10-05T09:52:30.867Z,52.47
2018-10-05T09:54:59.964Z,52.15
2018-10-05T09:57:29.107Z,51.12
2018-10-05T09:59:58.228Z,51.60
2018-10-05T10:02:33.023Z,51.55
2018-10-05T10:05:02.336Z,50.69
2018-10-05T10:07:31.359Z,50.20
2018-10-05T10:10:00.728Z,51.16
2018-10-05T10:12:29.742Z,50.75
2018-10-05T10:14:59.234Z,50.50
2018-10-05T10:17:28.424Z,50.41
2018-10-05T10:19:57.604Z,50.13
2018-10-05T10:22:26.612Z,49.60
2018-10-05T10:24:56.407Z,50.22
2018-10-05T10:27:26.135Z,49.47
2018-10-05T10:29:55.178Z,47.92
2018-10-05T10:32:24.614Z,49.29
2018-10-05T10:34:53.703Z,48.71
2018-10-05T10:37:22.733Z,49.70
2018-10-05T10:39:52.323Z,49.08
2018-10-05T10:42:21.408Z,48.24
2018-10-05T10:44:50.487Z,47.42
2018-10-05T10:47:19.935Z,49.00
2018-10-05T10:49:48.992Z,47.09
2018-10-05T10:52:18.079Z,47.72
2018-10-05T10:54:47.411Z,48.06
2018-10-05T10:57:16.449Z,47.90
2018-10-05T10:59:45.708Z,46.82
2018-10-05T11:02:18.020Z,46.71
2018-10-05T11:04:47.140Z,45.71
2018-10-05T11:07:16.211Z,46.87
2018-10-05T11:09:45.364Z,46.26
2018-10-05T11:12:14.445Z,45.15
2018-10-05T11:14:43.491Z,44.73
2018-10-05T11:17:12.631Z,46.53
2018-10-05T11:19:41.649Z,46.39
2018-10-05T11:22:11.903Z,45.52
2018-10-05T11:24:40.933Z,46.22
2018-10-05T11:27:10.621Z,46.34
2018-10-05T11:29:39.900Z,46.33
2018-10-05T11:32:09.074Z,46.05
2018-10-05T11:34:38.419Z,45.32
2018-10-05T11:37:07.960Z,45.96
2018-10-05T11:39:37.078Z,45.38
2018-10-05T11:42:06.095Z,44.99
2018-10-05T11:44:35.653Z,46.50
2018-10-05T11:47:04.651Z,45.36
2018-10-05T11:49:33.825Z,45.53
2018-10-05T11:52:03.341Z,44.48
2018-10-05T11:54:32.467Z,44.44
2018-10-05T11:57:01.543Z,45.02
2018-10-05T11:59:31.605Z,44.16
2018-10-05T12:02:00.750Z,44.05
2018-10-05T12:04:29.775Z,43.77
2018-10-05T12:06:59.144Z,44.50
2018-10-05T12:09:28.176Z,42.90
2018-10-05T12:11:57.239Z,43.79
2018-10-05T12:14:26.585Z,44.39
2018-10-05T12:16:55.713Z,43.01
2018-10-05T12:19:24.834Z,43.47
2018-10-05T12:21:54.332Z,41.69
2018-10-05T12:24:23.348Z,41.19
2018-10-05T12:26:52.433Z,39.88
2018-10-05T12:29:21.577Z,41.62
2018-10-05T12:31:50.715Z,42.06
2018-10-05T12:34:19.837Z,41.14
2018-10-05T12:36:49.320Z,41.81
2018-10-05T12:39:19.359Z,42.17
2018-10-05T12:41:48.486Z,42.57
2018-10-05T12:44:17.443Z,42.62
2018-10-05T12:46:46.452Z,44.08
2018-10-05T12:49:15.613Z,42.64
2018-10-05T12:51:45.028Z,43.38
2018-10-05T12:54:14.139Z,42.86
2018-10-05T12:56:43.144Z,42.28
2018-10-05T12:59:12.504Z,42.76
2018-10-05T13:01:41.508Z,42.36
2018-10-05T13:04:11.009Z,42.90
2018-10-05T13:06:40.351Z,43.25
2018-10-05T13:09:10.296Z,42.04
2018-10-05T13:11:39.315Z,44.25
2018-10-05T13:14:08.704Z,43.84
2018-10-05T13:16:37.796Z,43.36
2018-10-05T13:19:07.195Z,45.45
2018-10-05T13:21:36.704Z,44.30
2018-10-05T13:24:05.971Z,45.31
2018-10-05T13:26:35.490Z,46.31
2018-10-05T13:29:04.777Z,45.28
2018-10-05T13:31:34.356Z,47.17
2018-10-05T13:34:03.819Z,47.09
2018-10-05T13:36:33.428Z,46.26
2018-10-05T13:39:03.096Z,46.51
2018-10-05T13:41:32.223Z,46.70
2018-10-05T13:44:01.640Z,47.02
2018-10-05T13:46:31.229Z,47.54
2018-10-05T13:49:00.416Z,46.43
2018-10-05T13:51:29.844Z,46.84
2018-10-05T13:53:58.903Z,46.24
2018-10-05T13:56:28.237Z,46.11
2018-10-05T13:58:57.647Z,46.16
2018-10-05T14:01:26.677Z,45.83
2018-10-05T14:03:55.735Z,46.34
2018-10-05T14:06:26.168Z,46.24
2018-10-05T14:08:55.187Z,44.93
2018-10-05T14:11:24.315Z,45.91
2018-10-05T14:13:53.368Z,46.16
2018-10-05T14:16:23.115Z,45.66
2018-10-05T14:18:52.140Z,45.51
2018-10-05T14:21:21.443Z,45.24
2018-10-05T14:23:50.451Z,45.84
2018-10-05T14:26:20.551Z,45.11
2018-10-05T14:28:49.608Z,45.27
2018-10-05T14:31:18.666Z,46.18
2018-10-05T14:33:47.821Z,45.88
2018-10-05T14:36:17.241Z,46.48
2018-10-05T14:38:46.327Z,46.37
2018-10-05T14:41:15.343Z,47.10
2018-10-05T14:43:44.454Z,46.20
2018-10-05T14:46:13.463Z,46.63
2018-10-05T14:48:42.508Z,46.63
2018-10-05T14:51:12.019Z,46.27
2018-10-05T14:53:41.089Z,46.02
2018-10-05T14:56:10.323Z,47.49
2018-10-05T14:58:39.537Z,46.73
2018-10-05T15:01:08.592Z,48.05
2018-10-05T15:03:37.729Z,48.75
2018-10-05T15:06:07.593Z,47.38
2018-10-05T15:08:36.703Z,46.74
2018-10-05T15:11:05.791Z,47.33
2018-10-05T15:13:35.530Z,47.48
2018-10-05T15:16:04.560Z,47.67
2018-10-05T15:18:33.663Z,48.99
2018-10-05T15:21:02.727Z,49.29
2018-10-05T15:23:31.777Z,47.53
2018-10-05T15:26:00.789Z,47.38
2018-10-05T15:28:30.192Z,49.01
2018-10-05T15:30:59.311Z,49.14
2018-10-05T15:33:28.332Z,48.73
2018-10-05T15:35:57.464Z,47.15
2018-10-05T15:38:27.180Z,47.53
2018-10-05T15:40:56.636Z,48.50
2018-10-05T15:43:25.692Z,47.85
2018-10-05T15:47:07.551Z,48.46
2018-10-05T15:49:37.688Z,48.55
2018-10-05T15:52:06.895Z,47.92
2018-10-05T15:54:36.145Z,47.61
2018-10-05T15:57:05.686Z,47.96
2018-10-05T15:59:35.571Z,47.71
2018-10-05T16:02:05.123Z,49.09
2018-10-05T16:04:35.135Z,47.96
2018-10-05T16:07:04.166Z,48.10
2018-10-05T16:09:33.416Z,47.82
2018-10-05T16:12:02.961Z,49.12
2018-10-05T16:14:32.038Z,48.35
2018-10-05T16:17:01.132Z,48.98
2018-10-05T16:19:30.631Z,47.59
2018-10-05T16:21:59.655Z,49.52
2018-10-05T16:24:35.516Z,48.53
2018-10-05T16:27:04.525Z,47.78
2018-10-05T16:29:34.536Z,48.48
2018-10-05T16:32:03.600Z,48.52
2018-10-05T16:34:33.635Z,49.89
2018-10-05T16:37:02.871Z,49.86
2018-10-05T16:39:32.116Z,48.87
2018-10-05T16:42:01.227Z,49.54
2018-10-05T16:44:30.244Z,49.54
2018-10-05T16:46:59.375Z,49.20
2018-10-05T16:49:28.518Z,48.93
2018-10-05T16:51:57.578Z,49.76
2018-10-05T16:54:26.647Z,49.70
2018-10-05T16:56:55.683Z,49.60
2018-10-05T16:59:24.721Z,49.29
2018-10-05T17:01:54.157Z,49.62
2018-10-05T17:04:23.280Z,49.54
2018-10-05T17:06:52.349Z,48.63
2018-10-05T17:09:21.444Z,50.22
2018-10-05T17:11:50.474Z,50.21
2018-10-05T17:14:19.673Z,50.69
2018-10-05T17:16:49.036Z,51.17
2018-10-05T17:19:18.120Z,50.61
2018-10-05T17:21:47.225Z,52.10
2018-10-05T17:24:16.264Z,51.71
2018-10-05T17:26:45.300Z,51.29
2018-10-05T17:29:14.442Z,51.73
2018-10-05T17:31:43.620Z,53.13
2018-10-05T17:34:12.612Z,53.20
2018-10-05T17:36:41.678Z,54.05
2018-10-05T17:39:11.711Z,53.78
2018-10-05T17:41:40.807Z,53.49
2018-10-05T17:44:09.908Z,53.40
2018-10-05T17:46:38.949Z,53.69
2018-10-05T17:49:07.986Z,53.82
2018-10-05T17:51:37.124Z,54.72
2018-10-05T17:54:07.103Z,54.04
2018-10-05T17:56:36.183Z,55.53
2018-10-05T17:59:05.276Z,55.10
2018-10-05T18:01:34.795Z,54.25
2018-10-05T18:04:03.876Z,55.97
2018-10-05T18:06:32.883Z,54.99
2018-10-05T18:09:01.961Z,54.74
2018-10-05T18:11:31.108Z,53.72
2018-10-05T18:14:00.203Z,54.63
2018-10-05T18:16:29.395Z,55.02
2018-10-05T18:18:58.553Z,55.26
2018-10-05T18:21:27.659Z,54.52
2018-10-05T18:23:56.888Z,55.21
2018-10-05T18:26:25.956Z,55.55
2018-10-05T18:28:55.056Z,55.55
2018-10-05T18:31:24.548Z,54.77
2018-10-05T18:33:53.671Z,56.45
2018-10-05T18:36:22.672Z,55.80
2018-10-05T18:38:52.012Z,56.52
2018-10-05T18:41:21.158Z,55.88
2018-10-05T18:43:50.376Z,56.56
2018-10-05T18:46:19.726Z,56.15
2018-10-05T18:48:49.309Z,57.32
2018-10-05T18:51:18.428Z,57.50
2018-10-05T18:53:47.874Z,57.72
2018-10-05T18:56:28.128Z,57.50
2018-10-05T18:58:57.577Z,57.95
2018-10-05T19:01:26.684Z,57.07
2018-10-05T19:03:55.781Z,57.08
2018-10-05T19:06:24.816Z,57.33
2018-10-05T19:08:53.835Z,58.29
2018-10-05T19:11:22.847Z,57.87
2018-10-05T19:13:52.080Z,58.80
2018-10-05T19:16:21.097Z,58.25
2018-10-05T19:18:50.162Z,57.90
2018-10-05T19:21:19.269Z,58.67
2018-10-05T19:23:48.323Z,58.86
2018-10-05T19:26:17.537Z,59.36
2018-10-05T19:28:46.955Z,58.43
2018-10-05T19:31:16.097Z,58.74
2018-10-05T19:33:45.112Z,58.75
2018-10-05T19:36:14.397Z,59.08
2018-10-05T19:38:43.702Z,59.81
2018-10-05T19:41:12.761Z,59.36
2018-10-05T19:43:43.483Z,59.86
2018-10-05T19:46:12.655Z,59.71
2018-10-05T19:48:41.672Z,59.52
2018-10-05T19:51:11.060Z,59.51
2018-10-05T19:53:40.549Z,59.52
2018-10-05T19:56:09.967Z,59.83
2018-10-05T19:58:40.014Z,59.72
2018-10-05T20:01:09.140Z,59.48
2018-10-05T20:03:38.291Z,60.87
2018-10-05T20:06:07.787Z,59.86
2018-10-05T20:08:36.803Z,60.04
2018-10-05T20:11:05.903Z,59.94
2018-10-05T20:13:35.134Z,60.36
2018-10-05T20:16:04.262Z,60.79
2018-10-05T20:18:33.467Z,60.42
2018-10-05T20:21:02.816Z,60.34
2018-10-05T20:23:31.856Z,60.97
2018-10-05T20:26:00.987Z,61.14
2018-10-05T20:28:30.356Z,61.17
2018-10-05T20:30:59.400Z,61.41
2018-10-05T20:33:28.474Z,61.35
2018-10-05T20:35:57.680Z,60.91
2018-10-05T20:38:26.737Z,61.50
2018-10-05T20:40:56.149Z,60.53
2018-10-05T20:43:25.691Z,61.28
2018-10-05T20:45:54.831Z,61.01
2018-10-05T20:48:23.840Z,60.16
2018-10-05T20:50:53.340Z,61.63
2018-10-05T20:53:23.236Z,61.28
2018-10-05T20:55:52.347Z,61.58
2018-10-05T20:58:21.772Z,61.78
2018-10-05T21:00:50.768Z,61.60
2018-10-05T21:03:19.841Z,61.79
2018-10-05T21:05:48.976Z,61.99
2018-10-05T21:08:18.020Z,61.54
2018-10-05T21:10:47.127Z,61.85
2018-10-05T21:13:16.383Z,61.53
2018-10-05T21:15:45.459Z,60.53
2018-10-05T21:18:14.508Z,62.01
2018-10-05T21:20:43.583Z,61.00
2018-10-05T21:23:12.853Z,60.99
2018-10-05T21:25:41.979Z,61.24
2018-10-05T21:28:12.439Z,62.22
2018-10-05T21:30:41.519Z,62.04
2018-10-05T21:33:10.629Z,61.58
2018-10-05T21:35:39.687Z,62.30
2018-10-05T21:38:08.722Z,61.57
2018-10-05T21:40:38.042Z,62.91
2018-10-05T21:43:07.518Z,62.67
2018-10-05T21:45:36.550Z,62.62
2018-10-05T21:48:05.595Z,62.96
2018-10-05T21:50:35.019Z,63.47
2018-10-05T21:53:04.029Z,63.11
2018-10-05T21:55:33.090Z,63.00
2018-10-05T21:58:02.523Z,62.30
2018-10-05T22:00:42.470Z,62.60
2018-10-05T22:03:12.459Z,61.95
2018-10-05T22:05:41.574Z,61.65
2018-10-05T22:08:12.995Z,61.77
2018-10-05T22:10:42.851Z,63.00
2018-10-05T22:13:11.982Z,62.25
2018-10-05T22:15:41.316Z,63.15
2018-10-05T22:18:10.419Z,63.31
2018-10-05T22:20:39.432Z,62.93
2018-10-05T22:23:08.943Z,63.36
2018-10-05T22:25:38.234Z,63.80
2018-10-05T22:28:07.272Z,64.51
2018-10-05T22:30:36.322Z,63.83
2018-10-05T22:33:05.567Z,64.44
2018-10-05T22:35:35.481Z,63.80
2018-10-05T22:38:05.028Z,65.28
2018-10-05T22:40:34.188Z,63.60
2018-10-05T22:43:03.402Z,63.93
2018-10-05T22:45:32.807Z,64.96
2018-10-05T22:48:01.837Z,64.46
2018-10-05T22:50:30.891Z,65.06
2018-10-05T22:53:00.355Z,63.83
2018-10-05T22:55:29.488Z,64.81
2018-10-05T22:57:58.983Z,64.42
2018-10-05T23:00:28.823Z,64.05
2018-10-05T23:02:57.857Z,64.72
2018-10-05T23:05:27.091Z,64.61
2018-10-05T23:07:56.519Z,64.81
2018-10-05T23:10:25.607Z,64.34
2018-10-05T23:12:54.704Z,65.07
2018-10-05T23:15:23.787Z,64.74
2018-10-05T23:17:52.887Z,65.13
2018-10-05T23:20:21.896Z,64.99
2018-10-05T23:22:51.296Z,64.50
2018-10-05T23:25:20.323Z,65.24
2018-10-05T23:27:50.272Z,65.05
2018-10-05T23:30:19.704Z,64.72
2018-10-05T23:32:48.787Z,65.33
2018-10-05T23:35:17.791Z,64.29
2018-10-05T23:37:47.231Z,64.35
2018-10-05T23:40:16.272Z,64.28
2018-10-05T23:42:46.171Z,64.31
2018-10-05T23:45:15.703Z,63.87
2018-10-05T23:47:44.800Z,64.57
2018-10-05T23:50:13.979Z,64.55
2018-10-05T23:52:48.419Z,64.04
2018-10-05T23:55:17.783Z,65.19
2018-10-05T23:57:47.300Z,65.32
